sensor_id;sensor_type;location;lat;lon;timestamp;temperature;humidity
6654;DHT22;3363;50.942;7.034;2023-07-31T00:01:00;19.30;82.70
6654;DHT22;3363;50.942;7.034;2023-07-31T00:03:26;19.30;82.80
6654;DHT22;3363;50.942;7.034;2023-07-31T00:05:53;19.30;84.10
6654;DHT22;3363;50.942;7.034;2023-07-31T00:08:19;19.30;82.70
6654;DHT22;3363;50.942;7.034;2023-07-31T00:10:50;19.40;83.20
6654;DHT22;3363;50.942;7.034;2023-07-31T00:13:17;19.40;82.20
6654;DHT22;3363;50.942;7.034;2023-07-31T00:15:43;19.40;82.80
6654;DHT22;3363;50.942;7.034;2023-07-31T00:18:10;19.30;81.70
6654;DHT22;3363;50.942;7.034;2023-07-31T00:20:37;19.30;82.70
6654;DHT22;3363;50.942;7.034;2023-07-31T00:23:03;19.30;81.50
6654;DHT22;3363;50.942;7.034;2023-07-31T00:25:30;19.30;82.70
6654;DHT22;3363;50.942;7.034;2023-07-31T00:27:58;19.30;82.50
6654;DHT22;3363;50.942;7.034;2023-07-31T00:30:25;19.20;83.20
6654;DHT22;3363;50.942;7.034;2023-07-31T00:32:52;19.30;83.80
6654;DHT22;3363;50.942;7.034;2023-07-31T00:35:19;19.20;85.30
6654;DHT22;3363;50.942;7.034;2023-07-31T00:37:45;19.30;83.80
6654;DHT22;3363;50.942;7.034;2023-07-31T00:40:12;19.30;83.10
6654;DHT22;3363;50.942;7.034;2023-07-31T00:42:39;19.30;83.40
6654;DHT22;3363;50.942;7.034;2023-07-31T00:45:07;19.30;83.50
6654;DHT22;3363;50.942;7.034;2023-07-31T00:47:34;19.40;82.30
6654;DHT22;3363;50.942;7.034;2023-07-31T00:50:01;19.40;82.90
6654;DHT22;3363;50.942;7.034;2023-07-31T00:52:27;19.30;80.80
6654;DHT22;3363;50.942;7.034;2023-07-31T00:54:54;19.30;82.10
6654;DHT22;3363;50.942;7.034;2023-07-31T00:57:20;19.30;82.00
6654;DHT22;3363;50.942;7.034;2023-07-31T00:59:47;19.30;79.70
6654;DHT22;3363;50.942;7.034;2023-07-31T01:02:15;19.10;82.10
6654;DHT22;3363;50.942;7.034;2023-07-31T01:04:42;19.10;82.10
6654;DHT22;3363;50.942;7.034;2023-07-31T01:07:10;19.00;83.50
6654;DHT22;3363;50.942;7.034;2023-07-31T01:09:40;19.00;83.00
6654;DHT22;3363;50.942;7.034;2023-07-31T01:12:09;19.10;82.60
6654;DHT22;3363;50.942;7.034;2023-07-31T01:14:36;19.20;81.90
6654;DHT22;3363;50.942;7.034;2023-07-31T01:17:03;19.30;81.60
6654;DHT22;3363;50.942;7.034;2023-07-31T01:19:31;19.20;81.10
6654;DHT22;3363;50.942;7.034;2023-07-31T01:22:07;19.20;81.30
6654;DHT22;3363;50.942;7.034;2023-07-31T01:24:40;19.10;81.10
6654;DHT22;3363;50.942;7.034;2023-07-31T01:27:10;19.20;80.30
6654;DHT22;3363;50.942;7.034;2023-07-31T01:29:38;19.20;80.50
6654;DHT22;3363;50.942;7.034;2023-07-31T01:32:05;19.10;79.10
6654;DHT22;3363;50.942;7.034;2023-07-31T01:34:33;19.10;80.10
6654;DHT22;3363;50.942;7.034;2023-07-31T01:37:00;19.10;80.70
6654;DHT22;3363;50.942;7.034;2023-07-31T01:39:26;19.20;79.50
6654;DHT22;3363;50.942;7.034;2023-07-31T01:41:53;19.20;79.10
6654;DHT22;3363;50.942;7.034;2023-07-31T01:44:21;19.30;77.80
6654;DHT22;3363;50.942;7.034;2023-07-31T01:46:47;19.30;78.00
6654;DHT22;3363;50.942;7.034;2023-07-31T01:49:14;19.20;76.90
6654;DHT22;3363;50.942;7.034;2023-07-31T01:51:41;19.20;77.30
6654;DHT22;3363;50.942;7.034;2023-07-31T01:54:07;19.20;77.40
6654;DHT22;3363;50.942;7.034;2023-07-31T01:56:34;19.20;77.70
6654;DHT22;3363;50.942;7.034;2023-07-31T01:59:01;19.20;78.00
6654;DHT22;3363;50.942;7.034;2023-07-31T02:01:29;19.20;77.60
6654;DHT22;3363;50.942;7.034;2023-07-31T02:03:55;19.20;77.90
6654;DHT22;3363;50.942;7.034;2023-07-31T02:06:23;19.10;78.00
6654;DHT22;3363;50.942;7.034;2023-07-31T02:08:49;19.20;77.70
6654;DHT22;3363;50.942;7.034;2023-07-31T02:11:16;19.10;79.50
6654;DHT22;3363;50.942;7.034;2023-07-31T02:13:42;19.00;78.10
6654;DHT22;3363;50.942;7.034;2023-07-31T02:16:10;19.10;79.10
6654;DHT22;3363;50.942;7.034;2023-07-31T02:18:37;19.00;79.70
6654;DHT22;3363;50.942;7.034;2023-07-31T02:21:04;18.90;81.40
6654;DHT22;3363;50.942;7.034;2023-07-31T02:23:31;19.00;80.50
6654;DHT22;3363;50.942;7.034;2023-07-31T02:25:57;19.10;79.50
6654;DHT22;3363;50.942;7.034;2023-07-31T02:28:24;19.10;78.50
6654;DHT22;3363;50.942;7.034;2023-07-31T02:30:51;19.10;78.50
6654;DHT22;3363;50.942;7.034;2023-07-31T02:33:17;19.10;78.10
6654;DHT22;3363;50.942;7.034;2023-07-31T02:35:45;19.20;78.60
6654;DHT22;3363;50.942;7.034;2023-07-31T02:38:12;19.10;78.50
6654;DHT22;3363;50.942;7.034;2023-07-31T02:40:39;19.00;79.80
6654;DHT22;3363;50.942;7.034;2023-07-31T02:43:06;19.00;80.00
6654;DHT22;3363;50.942;7.034;2023-07-31T02:45:33;19.00;79.50
6654;DHT22;3363;50.942;7.034;2023-07-31T02:47:59;19.10;78.60
6654;DHT22;3363;50.942;7.034;2023-07-31T02:50:26;19.10;78.20
6654;DHT22;3363;50.942;7.034;2023-07-31T02:52:55;19.10;79.10
6654;DHT22;3363;50.942;7.034;2023-07-31T02:55:22;19.10;78.50
6654;DHT22;3363;50.942;7.034;2023-07-31T02:57:48;19.00;78.50
6654;DHT22;3363;50.942;7.034;2023-07-31T03:00:15;19.10;78.50
6654;DHT22;3363;50.942;7.034;2023-07-31T03:02:42;19.10;78.50
6654;DHT22;3363;50.942;7.034;2023-07-31T03:05:08;19.10;78.20
6654;DHT22;3363;50.942;7.034;2023-07-31T03:07:35;19.10;78.90
6654;DHT22;3363;50.942;7.034;2023-07-31T03:10:03;19.00;77.90
6654;DHT22;3363;50.942;7.034;2023-07-31T03:12:30;19.10;78.20
6654;DHT22;3363;50.942;7.034;2023-07-31T03:14:57;19.10;77.60
6654;DHT22;3363;50.942;7.034;2023-07-31T03:17:23;19.10;77.60
6654;DHT22;3363;50.942;7.034;2023-07-31T03:19:50;19.10;77.60
6654;DHT22;3363;50.942;7.034;2023-07-31T03:22:16;19.10;77.20
6654;DHT22;3363;50.942;7.034;2023-07-31T03:24:43;19.10;77.40
6654;DHT22;3363;50.942;7.034;2023-07-31T03:27:11;19.10;77.60
6654;DHT22;3363;50.942;7.034;2023-07-31T03:29:38;19.10;77.90
6654;DHT22;3363;50.942;7.034;2023-07-31T03:32:05;19.10;78.10
6654;DHT22;3363;50.942;7.034;2023-07-31T03:34:31;19.10;77.60
6654;DHT22;3363;50.942;7.034;2023-07-31T03:36:58;19.10;77.80
6654;DHT22;3363;50.942;7.034;2023-07-31T03:39:25;19.10;77.70
6654;DHT22;3363;50.942;7.034;2023-07-31T03:41:51;19.10;77.50
6654;DHT22;3363;50.942;7.034;2023-07-31T03:44:19;19.10;77.80
6654;DHT22;3363;50.942;7.034;2023-07-31T03:46:46;19.10;77.80
6654;DHT22;3363;50.942;7.034;2023-07-31T03:49:12;19.00;77.70
6654;DHT22;3363;50.942;7.034;2023-07-31T03:51:39;19.00;78.70
6654;DHT22;3363;50.942;7.034;2023-07-31T03:54:07;19.00;78.60
6654;DHT22;3363;50.942;7.034;2023-07-31T03:56:34;18.90;79.30
6654;DHT22;3363;50.942;7.034;2023-07-31T03:59:00;19.00;79.60
6654;DHT22;3363;50.942;7.034;2023-07-31T04:01:28;18.90;80.30
6654;DHT22;3363;50.942;7.034;2023-07-31T04:03:55;19.00;79.80
6654;DHT22;3363;50.942;7.034;2023-07-31T04:06:21;19.00;79.70
6654;DHT22;3363;50.942;7.034;2023-07-31T04:08:48;19.00;79.40
6654;DHT22;3363;50.942;7.034;2023-07-31T04:11:15;19.00;79.90
6654;DHT22;3363;50.942;7.034;2023-07-31T04:13:41;18.90;80.70
6654;DHT22;3363;50.942;7.034;2023-07-31T04:16:08;18.90;80.60
6654;DHT22;3363;50.942;7.034;2023-07-31T04:18:37;19.00;80.60
6654;DHT22;3363;50.942;7.034;2023-07-31T04:21:04;19.00;80.50
6654;DHT22;3363;50.942;7.034;2023-07-31T04:23:30;19.00;80.20
6654;DHT22;3363;50.942;7.034;2023-07-31T04:25:57;19.00;80.10
6654;DHT22;3363;50.942;7.034;2023-07-31T04:28:23;19.00;79.80
6654;DHT22;3363;50.942;7.034;2023-07-31T04:30:51;19.10;79.60
6654;DHT22;3363;50.942;7.034;2023-07-31T04:33:18;19.10;79.80
6654;DHT22;3363;50.942;7.034;2023-07-31T04:35:49;19.10;79.70
6654;DHT22;3363;50.942;7.034;2023-07-31T04:38:17;19.10;79.80
6654;DHT22;3363;50.942;7.034;2023-07-31T04:40:44;19.10;79.70
6654;DHT22;3363;50.942;7.034;2023-07-31T04:43:10;19.10;80.50
6654;DHT22;3363;50.942;7.034;2023-07-31T04:45:37;19.10;80.60
6654;DHT22;3363;50.942;7.034;2023-07-31T04:48:04;19.10;80.50
6654;DHT22;3363;50.942;7.034;2023-07-31T05:09:23;18.90;83.00
6654;DHT22;3363;50.942;7.034;2023-07-31T05:11:49;19.00;82.40
6654;DHT22;3363;50.942;7.034;2023-07-31T05:14:36;19.00;81.80
6654;DHT22;3363;50.942;7.034;2023-07-31T05:17:14;19.00;82.50
6654;DHT22;3363;50.942;7.034;2023-07-31T05:20:04;19.00;82.90
6654;DHT22;3363;50.942;7.034;2023-07-31T05:25:30;19.00;82.50
6654;DHT22;3363;50.942;7.034;2023-07-31T05:48:59;18.90;83.10
6654;DHT22;3363;50.942;7.034;2023-07-31T05:51:37;19.00;82.50
6654;DHT22;3363;50.942;7.034;2023-07-31T05:54:04;18.90;82.90
6654;DHT22;3363;50.942;7.034;2023-07-31T05:56:30;18.90;83.60
6654;DHT22;3363;50.942;7.034;2023-07-31T05:58:58;18.90;80.70
6654;DHT22;3363;50.942;7.034;2023-07-31T06:01:25;18.90;82.10
6654;DHT22;3363;50.942;7.034;2023-07-31T06:03:53;18.90;82.40
6654;DHT22;3363;50.942;7.034;2023-07-31T06:06:20;18.90;83.10
6654;DHT22;3363;50.942;7.034;2023-07-31T06:08:46;18.90;83.20
6654;DHT22;3363;50.942;7.034;2023-07-31T06:11:13;18.90;82.60
6654;DHT22;3363;50.942;7.034;2023-07-31T06:13:40;18.90;83.20
6654;DHT22;3363;50.942;7.034;2023-07-31T06:16:06;18.80;86.20
6654;DHT22;3363;50.942;7.034;2023-07-31T06:18:33;18.80;89.50
6654;DHT22;3363;50.942;7.034;2023-07-31T06:21:01;18.80;92.20
6654;DHT22;3363;50.942;7.034;2023-07-31T06:23:28;18.70;91.80
6654;DHT22;3363;50.942;7.034;2023-07-31T06:25:54;18.80;91.20
6654;DHT22;3363;50.942;7.034;2023-07-31T06:28:21;18.80;92.20
6654;DHT22;3363;50.942;7.034;2023-07-31T06:30:47;18.80;91.70
6654;DHT22;3363;50.942;7.034;2023-07-31T06:33:14;18.80;91.70
6654;DHT22;3363;50.942;7.034;2023-07-31T06:35:41;18.80;95.10
6654;DHT22;3363;50.942;7.034;2023-07-31T06:38:09;18.80;93.30
6654;DHT22;3363;50.942;7.034;2023-07-31T06:40:35;18.80;95.70
6654;DHT22;3363;50.942;7.034;2023-07-31T06:43:02;18.80;98.30
6654;DHT22;3363;50.942;7.034;2023-07-31T06:45:33;18.70;97.50
6654;DHT22;3363;50.942;7.034;2023-07-31T06:48:00;18.70;98.40
6654;DHT22;3363;50.942;7.034;2023-07-31T06:53:02;18.80;98.00
6654;DHT22;3363;50.942;7.034;2023-07-31T06:55:30;18.80;97.00
6654;DHT22;3363;50.942;7.034;2023-07-31T06:57:57;18.80;99.70
6654;DHT22;3363;50.942;7.034;2023-07-31T07:00:24;18.70;99.20
6654;DHT22;3363;50.942;7.034;2023-07-31T07:02:50;18.70;99.90
6654;DHT22;3363;50.942;7.034;2023-07-31T07:05:17;18.80;99.50
6654;DHT22;3363;50.942;7.034;2023-07-31T07:07:44;18.80;99.10
6654;DHT22;3363;50.942;7.034;2023-07-31T07:10:10;18.80;99.90
6654;DHT22;3363;50.942;7.034;2023-07-31T07:12:38;18.80;99.40
6654;DHT22;3363;50.942;7.034;2023-07-31T07:15:05;18.70;99.90
6654;DHT22;3363;50.942;7.034;2023-07-31T07:17:32;18.80;99.90
6654;DHT22;3363;50.942;7.034;2023-07-31T07:48:46;18.80;99.90
6654;DHT22;3363;50.942;7.034;2023-07-31T07:54:46;18.70;99.90
6654;DHT22;3363;50.942;7.034;2023-07-31T07:57:38;18.70;99.90
6654;DHT22;3363;50.942;7.034;2023-07-31T08:00:38;18.70;99.90
6654;DHT22;3363;50.942;7.034;2023-07-31T08:03:29;18.70;99.90
6654;DHT22;3363;50.942;7.034;2023-07-31T08:09:23;18.80;99.90
6654;DHT22;3363;50.942;7.034;2023-07-31T08:19:15;18.80;99.90
6654;DHT22;3363;50.942;7.034;2023-07-31T08:47:48;18.90;99.90
6654;DHT22;3363;50.942;7.034;2023-07-31T08:53:40;18.80;99.90
6654;DHT22;3363;50.942;7.034;2023-07-31T08:56:41;18.70;99.90
6654;DHT22;3363;50.942;7.034;2023-07-31T09:01:55;18.80;99.90
6654;DHT22;3363;50.942;7.034;2023-07-31T09:04:25;18.80;99.90
6654;DHT22;3363;50.942;7.034;2023-07-31T09:06:53;18.80;99.90
6654;DHT22;3363;50.942;7.034;2023-07-31T09:09:21;18.70;99.90
6654;DHT22;3363;50.942;7.034;2023-07-31T09:11:49;18.80;99.90
6654;DHT22;3363;50.942;7.034;2023-07-31T09:14:15;18.80;99.90
6654;DHT22;3363;50.942;7.034;2023-07-31T09:16:52;18.80;99.90
6654;DHT22;3363;50.942;7.034;2023-07-31T09:19:26;18.90;99.90
6654;DHT22;3363;50.942;7.034;2023-07-31T09:21:53;18.90;99.90
6654;DHT22;3363;50.942;7.034;2023-07-31T09:24:26;18.90;99.90
6654;DHT22;3363;50.942;7.034;2023-07-31T09:26:53;18.80;99.90
6654;DHT22;3363;50.942;7.034;2023-07-31T09:29:20;18.70;99.90
6654;DHT22;3363;50.942;7.034;2023-07-31T09:31:47;18.70;99.90
6654;DHT22;3363;50.942;7.034;2023-07-31T09:34:13;18.60;99.90
6654;DHT22;3363;50.942;7.034;2023-07-31T09:36:42;18.60;99.90
6654;DHT22;3363;50.942;7.034;2023-07-31T09:39:09;18.60;99.90
6654;DHT22;3363;50.942;7.034;2023-07-31T09:41:36;18.60;99.90
6654;DHT22;3363;50.942;7.034;2023-07-31T09:44:03;18.70;99.90
6654;DHT22;3363;50.942;7.034;2023-07-31T09:46:30;18.70;99.90
6654;DHT22;3363;50.942;7.034;2023-07-31T09:49:06;18.80;99.90
6654;DHT22;3363;50.942;7.034;2023-07-31T09:51:34;18.80;99.90
6654;DHT22;3363;50.942;7.034;2023-07-31T09:54:11;18.90;99.90
6654;DHT22;3363;50.942;7.034;2023-07-31T09:56:39;18.90;99.90
6654;DHT22;3363;50.942;7.034;2023-07-31T09:59:07;18.80;99.90
6654;DHT22;3363;50.942;7.034;2023-07-31T10:01:34;18.90;99.90
6654;DHT22;3363;50.942;7.034;2023-07-31T10:04:01;18.80;99.90
6654;DHT22;3363;50.942;7.034;2023-07-31T10:06:28;18.90;99.90
6654;DHT22;3363;50.942;7.034;2023-07-31T10:08:54;18.90;99.90
6654;DHT22;3363;50.942;7.034;2023-07-31T10:11:23;18.90;99.90
6654;DHT22;3363;50.942;7.034;2023-07-31T10:13:51;18.90;99.90
6654;DHT22;3363;50.942;7.034;2023-07-31T10:16:18;19.00;99.90
6654;DHT22;3363;50.942;7.034;2023-07-31T10:18:45;19.00;99.90
6654;DHT22;3363;50.942;7.034;2023-07-31T10:24:44;19.00;99.90
6654;DHT22;3363;50.942;7.034;2023-07-31T10:40:28;18.90;99.90
6654;DHT22;3363;50.942;7.034;2023-07-31T10:42:56;18.80;99.90
6654;DHT22;3363;50.942;7.034;2023-07-31T10:45:24;18.90;99.90
6654;DHT22;3363;50.942;7.034;2023-07-31T10:47:51;18.90;99.90
6654;DHT22;3363;50.942;7.034;2023-07-31T10:50:24;18.90;99.90
6654;DHT22;3363;50.942;7.034;2023-07-31T10:52:51;18.90;99.90
6654;DHT22;3363;50.942;7.034;2023-07-31T10:55:24;19.00;99.90
6654;DHT22;3363;50.942;7.034;2023-07-31T10:57:53;19.00;99.90
6654;DHT22;3363;50.942;7.034;2023-07-31T11:00:21;19.00;99.90
6654;DHT22;3363;50.942;7.034;2023-07-31T11:02:58;19.00;99.90
6654;DHT22;3363;50.942;7.034;2023-07-31T11:05:40;19.10;99.90
6654;DHT22;3363;50.942;7.034;2023-07-31T11:08:11;19.10;99.90
6654;DHT22;3363;50.942;7.034;2023-07-31T11:10:37;19.10;99.90
6654;DHT22;3363;50.942;7.034;2023-07-31T11:13:05;19.20;98.90
6654;DHT22;3363;50.942;7.034;2023-07-31T11:15:32;19.20;95.90
6654;DHT22;3363;50.942;7.034;2023-07-31T11:17:59;19.20;99.90
6654;DHT22;3363;50.942;7.034;2023-07-31T11:20:29;19.10;99.90
6654;DHT22;3363;50.942;7.034;2023-07-31T11:22:57;19.00;99.90
6654;DHT22;3363;50.942;7.034;2023-07-31T11:25:24;19.10;99.90
6654;DHT22;3363;50.942;7.034;2023-07-31T11:27:51;19.10;99.90
6654;DHT22;3363;50.942;7.034;2023-07-31T11:30:20;19.20;99.90
6654;DHT22;3363;50.942;7.034;2023-07-31T11:32:47;19.20;99.40
6654;DHT22;3363;50.942;7.034;2023-07-31T11:35:14;19.20;98.70
6654;DHT22;3363;50.942;7.034;2023-07-31T11:37:41;19.30;99.90
6654;DHT22;3363;50.942;7.034;2023-07-31T11:40:08;19.40;98.90
6654;DHT22;3363;50.942;7.034;2023-07-31T11:42:35;19.40;99.90
6654;DHT22;3363;50.942;7.034;2023-07-31T11:45:02;19.40;99.90
6654;DHT22;3363;50.942;7.034;2023-07-31T11:47:31;19.40;99.90
6654;DHT22;3363;50.942;7.034;2023-07-31T11:49:59;19.50;99.90
6654;DHT22;3363;50.942;7.034;2023-07-31T11:52:26;19.50;99.80
6654;DHT22;3363;50.942;7.034;2023-07-31T11:54:54;19.50;99.40
6654;DHT22;3363;50.942;7.034;2023-07-31T11:57:20;19.50;98.20
6654;DHT22;3363;50.942;7.034;2023-07-31T11:59:47;19.50;96.10
6654;DHT22;3363;50.942;7.034;2023-07-31T12:02:14;19.50;94.80
6654;DHT22;3363;50.942;7.034;2023-07-31T12:04:43;19.50;95.80
6654;DHT22;3363;50.942;7.034;2023-07-31T12:07:09;19.50;94.20
6654;DHT22;3363;50.942;7.034;2023-07-31T12:09:37;19.50;93.90
6654;DHT22;3363;50.942;7.034;2023-07-31T12:12:07;19.50;93.70
6654;DHT22;3363;50.942;7.034;2023-07-31T12:14:34;19.40;93.70
6654;DHT22;3363;50.942;7.034;2023-07-31T12:17:04;19.40;94.40
6654;DHT22;3363;50.942;7.034;2023-07-31T12:19:32;19.40;93.70
6654;DHT22;3363;50.942;7.034;2023-07-31T12:22:01;19.40;93.20
6654;DHT22;3363;50.942;7.034;2023-07-31T12:24:28;19.40;93.70
6654;DHT22;3363;50.942;7.034;2023-07-31T12:26:55;19.40;93.00
6654;DHT22;3363;50.942;7.034;2023-07-31T12:29:22;19.40;92.80
6654;DHT22;3363;50.942;7.034;2023-07-31T12:31:48;19.40;92.40
6654;DHT22;3363;50.942;7.034;2023-07-31T12:34:15;19.50;93.00
6654;DHT22;3363;50.942;7.034;2023-07-31T12:36:42;19.50;92.10
6654;DHT22;3363;50.942;7.034;2023-07-31T12:39:10;19.50;92.00
6654;DHT22;3363;50.942;7.034;2023-07-31T12:41:36;19.50;91.90
6654;DHT22;3363;50.942;7.034;2023-07-31T12:44:03;19.50;91.10
6654;DHT22;3363;50.942;7.034;2023-07-31T12:46:30;19.60;92.50
6654;DHT22;3363;50.942;7.034;2023-07-31T12:48:56;19.60;91.30
6654;DHT22;3363;50.942;7.034;2023-07-31T12:51:23;19.60;92.10
6654;DHT22;3363;50.942;7.034;2023-07-31T12:53:50;19.60;91.30
6654;DHT22;3363;50.942;7.034;2023-07-31T12:56:18;19.60;91.60
6654;DHT22;3363;50.942;7.034;2023-07-31T12:58:44;19.60;91.00
6654;DHT22;3363;50.942;7.034;2023-07-31T13:01:11;19.60;90.50
6654;DHT22;3363;50.942;7.034;2023-07-31T13:03:38;19.70;90.30
6654;DHT22;3363;50.942;7.034;2023-07-31T13:06:05;19.70;90.50
6654;DHT22;3363;50.942;7.034;2023-07-31T13:08:32;19.70;88.10
6654;DHT22;3363;50.942;7.034;2023-07-31T13:10:58;19.80;89.20
6654;DHT22;3363;50.942;7.034;2023-07-31T13:13:26;19.70;94.70
6654;DHT22;3363;50.942;7.034;2023-07-31T13:15:53;19.80;88.10
6654;DHT22;3363;50.942;7.034;2023-07-31T13:18:20;19.80;90.30
6654;DHT22;3363;50.942;7.034;2023-07-31T13:20:47;19.80;86.70
6654;DHT22;3363;50.942;7.034;2023-07-31T13:23:13;19.80;88.00
6654;DHT22;3363;50.942;7.034;2023-07-31T13:25:40;19.80;87.30
6654;DHT22;3363;50.942;7.034;2023-07-31T13:28:07;19.80;87.00
6654;DHT22;3363;50.942;7.034;2023-07-31T13:30:35;19.80;91.90
6654;DHT22;3363;50.942;7.034;2023-07-31T13:33:01;19.80;86.00
6654;DHT22;3363;50.942;7.034;2023-07-31T13:35:28;19.80;85.70
6654;DHT22;3363;50.942;7.034;2023-07-31T13:37:56;19.90;81.30
6654;DHT22;3363;50.942;7.034;2023-07-31T13:40:23;19.90;82.50
6654;DHT22;3363;50.942;7.034;2023-07-31T13:42:50;20.00;80.20
6654;DHT22;3363;50.942;7.034;2023-07-31T13:45:16;20.10;81.40
6654;DHT22;3363;50.942;7.034;2023-07-31T13:47:44;20.10;82.20
6654;DHT22;3363;50.942;7.034;2023-07-31T13:50:11;20.10;80.00
6654;DHT22;3363;50.942;7.034;2023-07-31T13:52:38;20.20;81.70
6654;DHT22;3363;50.942;7.034;2023-07-31T13:55:05;20.20;82.50
6654;DHT22;3363;50.942;7.034;2023-07-31T13:57:32;20.30;80.10
6654;DHT22;3363;50.942;7.034;2023-07-31T13:59:58;20.40;80.20
6654;DHT22;3363;50.942;7.034;2023-07-31T14:02:25;20.40;79.60
6654;DHT22;3363;50.942;7.034;2023-07-31T14:04:53;20.50;82.00
6654;DHT22;3363;50.942;7.034;2023-07-31T14:07:20;20.70;77.60
6654;DHT22;3363;50.942;7.034;2023-07-31T14:09:46;20.70;76.80
6654;DHT22;3363;50.942;7.034;2023-07-31T14:12:13;20.90;76.50
6654;DHT22;3363;50.942;7.034;2023-07-31T14:14:39;20.70;75.80
6654;DHT22;3363;50.942;7.034;2023-07-31T14:17:06;20.70;75.10
6654;DHT22;3363;50.942;7.034;2023-07-31T14:19:33;20.60;76.80
6654;DHT22;3363;50.942;7.034;2023-07-31T14:22:01;20.50;76.40
6654;DHT22;3363;50.942;7.034;2023-07-31T14:24:27;20.40;76.70
6654;DHT22;3363;50.942;7.034;2023-07-31T14:26:54;20.30;77.40
6654;DHT22;3363;50.942;7.034;2023-07-31T14:29:21;20.20;77.00
6654;DHT22;3363;50.942;7.034;2023-07-31T14:31:49;20.20;77.10
6654;DHT22;3363;50.942;7.034;2023-07-31T14:34:16;20.10;78.30
6654;DHT22;3363;50.942;7.034;2023-07-31T14:36:43;20.10;77.10
6654;DHT22;3363;50.942;7.034;2023-07-31T14:39:12;20.20;75.40
6654;DHT22;3363;50.942;7.034;2023-07-31T14:41:39;20.20;76.10
6654;DHT22;3363;50.942;7.034;2023-07-31T14:44:06;20.20;76.70
6654;DHT22;3363;50.942;7.034;2023-07-31T14:46:32;20.20;76.80
6654;DHT22;3363;50.942;7.034;2023-07-31T14:48:59;20.10;74.70
6654;DHT22;3363;50.942;7.034;2023-07-31T14:51:25;20.10;75.40
6654;DHT22;3363;50.942;7.034;2023-07-31T14:53:52;20.10;76.00
6654;DHT22;3363;50.942;7.034;2023-07-31T14:56:20;20.30;74.50
6654;DHT22;3363;50.942;7.034;2023-07-31T14:58:47;20.20;75.80
6654;DHT22;3363;50.942;7.034;2023-07-31T15:01:13;20.20;74.60
6654;DHT22;3363;50.942;7.034;2023-07-31T15:03:40;20.10;75.10
6654;DHT22;3363;50.942;7.034;2023-07-31T15:06:07;20.20;74.10
6654;DHT22;3363;50.942;7.034;2023-07-31T15:08:34;20.10;74.40
6654;DHT22;3363;50.942;7.034;2023-07-31T15:11:01;20.10;76.70
6654;DHT22;3363;50.942;7.034;2023-07-31T15:13:29;20.10;74.90
6654;DHT22;3363;50.942;7.034;2023-07-31T15:15:56;20.10;75.30
6654;DHT22;3363;50.942;7.034;2023-07-31T15:18:23;20.10;74.70
6654;DHT22;3363;50.942;7.034;2023-07-31T15:20:50;20.10;75.30
6654;DHT22;3363;50.942;7.034;2023-07-31T15:23:16;20.10;74.50
6654;DHT22;3363;50.942;7.034;2023-07-31T15:25:43;20.10;74.70
6654;DHT22;3363;50.942;7.034;2023-07-31T15:28:10;20.10;74.90
6654;DHT22;3363;50.942;7.034;2023-07-31T15:30:39;20.10;74.40
6654;DHT22;3363;50.942;7.034;2023-07-31T15:33:05;20.10;73.70
6654;DHT22;3363;50.942;7.034;2023-07-31T15:35:32;20.10;74.10
6654;DHT22;3363;50.942;7.034;2023-07-31T15:37:59;20.10;74.30
6654;DHT22;3363;50.942;7.034;2023-07-31T15:40:25;20.10;74.10
6654;DHT22;3363;50.942;7.034;2023-07-31T15:42:52;20.00;74.50
6654;DHT22;3363;50.942;7.034;2023-07-31T15:45:18;20.00;76.00
6654;DHT22;3363;50.942;7.034;2023-07-31T15:47:47;20.00;74.40
6654;DHT22;3363;50.942;7.034;2023-07-31T15:50:14;20.00;73.70
6654;DHT22;3363;50.942;7.034;2023-07-31T15:52:40;20.00;74.40
6654;DHT22;3363;50.942;7.034;2023-07-31T15:55:07;20.00;73.90
6654;DHT22;3363;50.942;7.034;2023-07-31T15:57:34;20.00;73.50
6654;DHT22;3363;50.942;7.034;2023-07-31T16:00:01;20.00;72.80
6654;DHT22;3363;50.942;7.034;2023-07-31T16:02:27;20.00;73.80
6654;DHT22;3363;50.942;7.034;2023-07-31T16:04:55;20.00;77.10
6654;DHT22;3363;50.942;7.034;2023-07-31T16:07:22;19.90;77.80
6654;DHT22;3363;50.942;7.034;2023-07-31T16:09:49;19.80;77.50
6654;DHT22;3363;50.942;7.034;2023-07-31T16:12:15;19.80;81.10
6654;DHT22;3363;50.942;7.034;2023-07-31T16:14:42;19.70;81.80
6654;DHT22;3363;50.942;7.034;2023-07-31T16:17:08;19.70;81.70
6654;DHT22;3363;50.942;7.034;2023-07-31T16:19:35;19.60;81.50
6654;DHT22;3363;50.942;7.034;2023-07-31T16:22:04;19.60;88.60
6654;DHT22;3363;50.942;7.034;2023-07-31T16:24:31;19.50;94.80
6654;DHT22;3363;50.942;7.034;2023-07-31T16:26:58;19.40;90.50
6654;DHT22;3363;50.942;7.034;2023-07-31T16:29:24;19.50;91.10
6654;DHT22;3363;50.942;7.034;2023-07-31T16:31:51;19.50;90.90
6654;DHT22;3363;50.942;7.034;2023-07-31T16:34:17;19.40;94.30
6654;DHT22;3363;50.942;7.034;2023-07-31T16:36:44;19.40;94.90
6654;DHT22;3363;50.942;7.034;2023-07-31T16:39:12;19.30;96.70
6654;DHT22;3363;50.942;7.034;2023-07-31T16:41:39;19.30;95.00
6654;DHT22;3363;50.942;7.034;2023-07-31T16:44:05;19.20;95.40
6654;DHT22;3363;50.942;7.034;2023-07-31T16:46:32;19.10;99.90
6654;DHT22;3363;50.942;7.034;2023-07-31T16:48:59;19.00;99.90
6654;DHT22;3363;50.942;7.034;2023-07-31T16:51:26;19.00;99.90
6654;DHT22;3363;50.942;7.034;2023-07-31T16:53:52;19.10;99.90
6654;DHT22;3363;50.942;7.034;2023-07-31T16:56:20;18.90;99.90
6654;DHT22;3363;50.942;7.034;2023-07-31T16:58:47;18.90;99.90
6654;DHT22;3363;50.942;7.034;2023-07-31T17:01:14;19.00;99.90
6654;DHT22;3363;50.942;7.034;2023-07-31T17:03:40;18.70;99.90
6654;DHT22;3363;50.942;7.034;2023-07-31T17:06:07;18.80;99.90
6654;DHT22;3363;50.942;7.034;2023-07-31T17:08:34;18.80;99.90
6654;DHT22;3363;50.942;7.034;2023-07-31T17:11:00;18.70;99.90
6654;DHT22;3363;50.942;7.034;2023-07-31T17:13:28;19.00;99.90
6654;DHT22;3363;50.942;7.034;2023-07-31T17:15:55;18.80;99.90
6654;DHT22;3363;50.942;7.034;2023-07-31T17:18:22;18.70;99.90
6654;DHT22;3363;50.942;7.034;2023-07-31T17:20:48;18.90;99.90
6654;DHT22;3363;50.942;7.034;2023-07-31T17:23:15;18.80;99.90
6654;DHT22;3363;50.942;7.034;2023-07-31T17:25:42;18.90;99.90
6654;DHT22;3363;50.942;7.034;2023-07-31T17:28:08;18.90;99.90
6654;DHT22;3363;50.942;7.034;2023-07-31T17:30:36;18.80;99.90
6654;DHT22;3363;50.942;7.034;2023-07-31T17:33:03;18.70;99.90
6654;DHT22;3363;50.942;7.034;2023-07-31T17:35:29;18.60;99.90
6654;DHT22;3363;50.942;7.034;2023-07-31T17:37:57;18.60;99.90
6654;DHT22;3363;50.942;7.034;2023-07-31T17:40:24;18.50;99.90
6654;DHT22;3363;50.942;7.034;2023-07-31T17:42:50;18.60;99.90
6654;DHT22;3363;50.942;7.034;2023-07-31T17:45:17;18.70;99.90
6654;DHT22;3363;50.942;7.034;2023-07-31T17:47:45;18.80;99.90
6654;DHT22;3363;50.942;7.034;2023-07-31T17:50:12;18.70;99.90
6654;DHT22;3363;50.942;7.034;2023-07-31T17:52:38;18.70;99.90
6654;DHT22;3363;50.942;7.034;2023-07-31T17:55:06;18.80;99.90
6654;DHT22;3363;50.942;7.034;2023-07-31T17:57:33;18.70;99.90
6654;DHT22;3363;50.942;7.034;2023-07-31T17:59:59;18.70;99.90
6654;DHT22;3363;50.942;7.034;2023-07-31T18:02:26;18.70;99.90
6654;DHT22;3363;50.942;7.034;2023-07-31T18:04:55;18.60;99.90
6654;DHT22;3363;50.942;7.034;2023-07-31T18:07:22;18.70;99.90
6654;DHT22;3363;50.942;7.034;2023-07-31T18:09:49;18.60;99.90
6654;DHT22;3363;50.942;7.034;2023-07-31T18:12:15;18.80;99.90
6654;DHT22;3363;50.942;7.034;2023-07-31T18:14:42;18.70;99.90
6654;DHT22;3363;50.942;7.034;2023-07-31T18:17:08;18.50;99.90
6654;DHT22;3363;50.942;7.034;2023-07-31T18:19:36;18.60;99.90
6654;DHT22;3363;50.942;7.034;2023-07-31T18:22:05;18.50;99.90